Time;durP1;ratioP1;P1;durP2;ratioP2;P2;SDS_P1;SDS_P2;PMS_P1;PMS_P2;Temp;Humidity;BMP_temperature;BMP_pressure;BME280_temperature;BME280_humidity;BME280_pressure;Samples;Min_cycle;Max_cycle;Signal;HPM_P1;HPM_P2
2022/11/12 00:00:59;;;;;;;16.23;6.68;;;;;;;8.62;92.74;95973.91;5110013;28;20197;-78
2022/11/12 00:03:26;;;;;;;21.73;7.90;;;;;;;8.47;93.07;95977.56;5112437;27;20665;-79
2022/11/12 00:05:53;;;;;;;15.73;7.20;;;;;;;8.46;94.23;95965.94;5103938;28;20205;-81
2022/11/12 00:08:20;;;;;;;14.88;6.72;;;;;;;8.69;94.39;95966.31;5108945;28;20209;-80
2022/11/12 00:10:48;;;;;;;14.43;6.95;;;;;;;8.63;94.02;95965.53;5108587;28;20540;-80
2022/11/12 00:13:15;;;;;;;15.30;6.07;;;;;;;8.66;94.38;95958.75;5108964;28;20209;-80
2022/11/12 00:15:42;;;;;;;12.65;6.60;;;;;;;8.55;94.43;95958.84;5108906;28;20209;-80
2022/11/12 00:18:09;;;;;;;16.00;7.43;;;;;;;8.35;94.77;95964.38;5108244;28;20296;-80
2022/11/12 00:20:36;;;;;;;13.95;7.53;;;;;;;8.36;94.69;95967.88;5107848;28;20239;-79
2022/11/12 00:23:03;;;;;;;15.88;7.57;;;;;;;8.37;94.35;95956.00;5098639;28;20375;-79
2022/11/12 00:25:30;;;;;;;13.32;6.68;;;;;;;8.20;94.61;95961.75;5090629;28;20734;-79
2022/11/12 00:28:03;;;;;;;13.23;6.78;;;;;;;8.25;95.11;95969.81;5109175;28;20262;-79
2022/11/12 00:30:30;;;;;;;18.83;8.00;;;;;;;8.33;94.77;95977.38;5108845;28;20255;-79
2022/11/12 00:32:57;;;;;;;13.02;7.00;;;;;;;8.30;94.64;95977.09;5108623;28;20241;-80
2022/11/12 00:35:24;;;;;;;13.25;6.10;;;;;;;8.33;94.80;95966.59;5108713;28;20201;-81
2022/11/12 00:37:55;;;;;;;11.40;5.95;;;;;;;8.46;93.93;95965.94;5120286;28;20197;-79
2022/11/12 00:40:22;;;;;;;18.75;7.82;;;;;;;8.32;94.27;95964.16;5119450;27;20293;-79
2022/11/12 00:42:50;;;;;;;12.60;5.97;;;;;;;8.41;94.38;95968.69;5088485;28;20210;-80
2022/11/12 00:45:18;;;;;;;16.17;7.13;;;;;;;8.40;94.77;95967.06;5088732;28;20252;-80
2022/11/12 00:47:45;;;;;;;14.70;7.57;;;;;;;8.49;94.04;95959.97;5100590;28;20255;-79
2022/11/12 00:50:13;;;;;;;9.65;5.43;;;;;;;8.40;94.49;95967.06;5108428;28;20729;-79
2022/11/12 00:52:40;;;;;;;10.77;5.63;;;;;;;8.45;94.81;95975.13;5108059;28;20728;-78
2022/11/12 00:55:07;;;;;;;13.10;6.45;;;;;;;8.52;94.79;95972.91;5116246;27;20197;-80
2022/11/12 00:57:34;;;;;;;17.17;7.07;;;;;;;8.60;94.37;95970.72;5105200;27;20206;-81
2022/11/12 01:00:01;;;;;;;20.40;6.85;;;;;;;8.66;94.08;95964.16;5092005;28;20620;-79
2022/11/12 01:02:29;;;;;;;10.70;5.90;;;;;;;8.68;93.80;95943.91;5090983;28;20206;-80
2022/11/12 01:04:56;;;;;;;11.52;4.68;;;;;;;8.57;93.50;95933.47;5091343;28;20599;-78
2022/11/12 01:07:23;;;;;;;15.95;7.75;;;;;;;8.54;93.36;95942.94;5090767;28;20202;-79
2022/11/12 01:09:49;;;;;;;16.70;7.03;;;;;;;8.59;93.78;95939.38;5091360;28;20553;-79
2022/11/12 01:12:16;;;;;;;17.48;6.55;;;;;;;8.60;93.64;95949.09;5105936;28;20268;-79
2022/11/12 01:14:43;;;;;;;13.32;7.15;;;;;;;8.53;93.62;95952.91;5112284;28;20214;-80
2022/11/12 01:17:09;;;;;;;20.73;7.43;;;;;;;8.47;93.94;95955.97;5111985;28;20346;-78
2022/11/12 01:19:38;;;;;;;11.55;6.55;;;;;;;8.47;94.17;95951.34;5112262;27;20226;-79
2022/11/12 01:22:04;;;;;;;13.40;6.18;;;;;;;8.45;94.02;95947.31;5110854;28;20201;-79
2022/11/12 01:24:31;;;;;;;14.40;7.05;;;;;;;8.37;94.49;95946.00;5090965;28;20206;-79
2022/11/12 01:26:58;;;;;;;14.90;7.75;;;;;;;8.32;94.62;95940.66;5092687;28;20271;-80
2022/11/12 01:29:25;;;;;;;10.23;5.68;;;;;;;8.36;94.55;95954.38;5112063;28;20209;-79
2022/11/12 01:31:51;;;;;;;16.55;7.90;;;;;;;8.34;94.55;95946.56;5113179;27;20233;-80
2022/11/12 01:34:18;;;;;;;15.95;6.57;;;;;;;8.33;94.77;95942.28;5115669;27;20206;-80
2022/11/12 01:36:46;;;;;;;19.10;7.82;;;;;;;8.35;94.38;95940.09;5090853;28;20460;-79
2022/11/12 01:39:13;;;;;;;13.48;6.43;;;;;;;8.46;94.80;95943.53;5091153;28;20688;-80
2022/11/12 01:41:41;;;;;;;14.20;7.53;;;;;;;8.51;94.36;95936.19;5107247;28;20205;-79
2022/11/12 01:44:10;;;;;;;15.27;7.28;;;;;;;8.64;93.78;95933.91;5111181;28;20209;-79
2022/11/12 01:46:46;;;;;;;16.20;6.97;;;;;;;8.61;93.36;95929.88;5111490;28;20266;-79
2022/11/12 01:49:18;;;;;;;12.75;6.40;;;;;;;8.64;93.78;95917.72;5111667;28;20411;-80
2022/11/12 01:51:49;;;;;;;11.18;4.97;;;;;;;8.65;92.77;95924.72;5110446;28;20731;-78
2022/11/12 01:54:20;;;;;;;12.02;7.07;;;;;;;8.67;92.85;95933.38;5112036;28;20270;-80
2022/11/12 01:56:47;;;;;;;11.52;6.68;;;;;;;8.61;93.25;95929.88;5111313;28;20266;-79
2022/11/12 01:59:20;;;;;;;16.38;7.72;;;;;;;8.75;92.91;95922.75;5111794;27;20221;-79
2022/11/12 02:01:46;;;;;;;15.95;7.20;;;;;;;8.70;92.54;95932.81;5111578;28;20664;-79
2022/11/12 02:04:14;;;;;;;14.75;6.88;;;;;;;8.68;92.75;95921.47;5124014;27;20249;-80
2022/11/12 02:06:43;;;;;;;12.18;6.40;;;;;;;8.69;92.91;95917.69;5090250;28;20263;-80
2022/11/12 02:09:12;;;;;;;14.05;6.15;;;;;;;8.55;93.24;95931.84;5090275;28;20232;-80
2022/11/12 02:11:39;;;;;;;16.70;7.15;;;;;;;8.51;93.71;95922.69;5089640;28;20198;-79
2022/11/12 02:14:05;;;;;;;9.63;5.43;;;;;;;8.41;94.41;95922.78;5091148;28;20203;-80
2022/11/12 02:16:35;;;;;;;13.57;6.22;;;;;;;8.49;94.20;95922.16;5091016;28;20211;-80
2022/11/12 02:19:03;;;;;;;15.23;6.22;;;;;;;8.38;94.35;95920.63;5090361;28;20226;-80
2022/11/12 02:21:31;;;;;;;9.95;5.05;;;;;;;8.21;94.49;95926.38;5090418;28;20206;-79
2022/11/12 02:23:59;;;;;;;9.20;5.10;;;;;;;8.15;94.51;95937.50;5107602;28;20263;-80
2022/11/12 02:26:29;;;;;;;12.10;6.05;;;;;;;8.19;93.93;95935.88;5110445;28;20586;-79
2022/11/12 02:28:56;;;;;;;11.65;4.47;;;;;;;8.04;92.54;95936.75;5110684;28;20205;-78
2022/11/12 02:31:22;;;;;;;11.05;5.05;;;;;;;8.10;93.23;95924.03;5110587;28;20719;-78
2022/11/12 02:33:49;;;;;;;10.43;5.00;;;;;;;8.04;94.36;95935.97;5120132;27;20665;-78
2022/11/12 02:36:16;;;;;;;10.32;5.15;;;;;;;8.06;94.26;95923.00;5090882;28;20729;-79
2022/11/12 02:38:44;;;;;;;11.75;5.90;;;;;;;7.90;95.13;95927.69;5090111;28;20255;-78
2022/11/12 02:41:11;;;;;;;15.73;5.40;;;;;;;7.80;95.18;95928.50;5101312;28;20205;-79
2022/11/12 02:43:39;;;;;;;8.10;4.90;;;;;;;7.74;95.15;95935.03;5110397;28;20259;-78
2022/11/12 02:46:06;;;;;;;11.00;4.35;;;;;;;7.77;94.93;95931.78;5109920;28;20219;-80
2022/11/12 02:48:33;;;;;;;6.35;3.00;;;;;;;7.68;93.81;95928.03;5110506;28;20201;-79
2022/11/12 02:51:00;;;;;;;13.40;4.40;;;;;;;7.75;94.09;95933.16;5110292;28;20213;-79
2022/11/12 02:53:27;;;;;;;9.82;4.13;;;;;;;7.70;94.39;95931.25;5109357;28;20209;-79
2022/11/12 02:55:55;;;;;;;9.40;4.13;;;;;;;7.74;94.73;95931.53;5110232;28;20209;-80
2022/11/12 02:58:22;;;;;;;4.82;3.47;;;;;;;7.74;95.13;95926.94;5109478;28;20485;-80
2022/11/12 03:00:49;;;;;;;7.32;4.35;;;;;;;7.81;95.17;95924.72;5110333;28;20323;-80
2022/11/12 03:03:16;;;;;;;7.75;2.92;;;;;;;7.78;95.51;95919.91;5117266;27;20205;-79
2022/11/12 03:05:44;;;;;;;10.00;4.80;;;;;;;7.74;95.44;95921.53;5103525;27;20206;-78
2022/11/12 03:08:11;;;;;;;7.65;4.68;;;;;;;7.73;95.72;95917.25;5089734;28;20685;-78
2022/11/12 03:10:39;;;;;;;6.75;4.15;;;;;;;7.77;95.91;95918.31;5089645;28;20206;-78
2022/11/12 03:13:07;;;;;;;7.80;4.15;;;;;;;7.71;95.56;95914.00;5089152;28;20260;-78
2022/11/12 03:15:34;;;;;;;9.68;4.15;;;;;;;7.61;95.55;95922.16;5089519;28;20210;-79
2022/11/12 03:18:06;;;;;;;8.98;4.03;;;;;;;7.51;95.53;95916.81;5089744;28;20293;-79
2022/11/12 03:20:33;;;;;;;8.57;3.42;;;;;;;7.40;95.83;95921.41;5089681;28;20226;-79
2022/11/12 03:23:02;;;;;;;8.48;4.68;;;;;;;7.28;97.00;95925.50;5107560;27;20479;-79
2022/11/12 03:25:30;;;;;;;8.05;3.67;;;;;;;7.16;97.93;95930.38;5100141;27;20669;-78
2022/11/12 03:27:58;;;;;;;6.28;3.25;;;;;;;6.98;99.04;95939.84;5108932;28;20702;-79
2022/11/12 03:30:28;;;;;;;7.00;3.70;;;;;;;6.94;99.46;95941.50;5108769;28;20212;-79
2022/11/12 03:32:55;;;;;;;8.20;4.57;;;;;;;6.96;99.49;95937.47;5108593;28;20240;-79
2022/11/12 03:35:22;;;;;;;7.57;3.83;;;;;;;6.90;99.88;95938.53;5108825;28;20645;-79
2022/11/12 03:37:49;;;;;;;8.65;3.10;;;;;;;6.74;100.00;95935.03;5109529;28;20684;-78
2022/11/12 03:40:17;;;;;;;5.45;1.90;;;;;;;6.75;99.91;95931.28;5109924;28;20286;-80
2022/11/12 03:42:47;;;;;;;7.47;3.05;;;;;;;6.68;99.69;95930.75;5120702;27;20289;-80
2022/11/12 03:45:14;;;;;;;4.40;2.25;;;;;;;6.60;99.90;95933.16;5093150;27;20210;-79
2022/11/12 03:47:45;;;;;;;4.70;2.90;;;;;;;6.64;100.00;95934.25;5088349;28;20679;-79
2022/11/12 03:50:13;;;;;;;4.60;3.20;;;;;;;6.65;100.00;95934.00;5095090;28;20197;-80
2022/11/12 03:52:44;;;;;;;7.68;3.47;;;;;;;6.64;100.00;95928.88;5108865;28;20278;-79
2022/11/12 03:55:12;;;;;;;4.53;2.38;;;;;;;6.78;100.00;95929.94;5108341;28;20209;-79
2022/11/12 03:57:38;;;;;;;4.10;2.65;;;;;;;6.79;99.77;95934.25;5108886;28;20197;-78
2022/11/12 04:00:07;;;;;;;5.63;2.67;;;;;;;6.81;99.91;95929.41;5108880;28;20703;-79
2022/11/12 04:02:33;;;;;;;5.95;2.97;;;;;;;6.79;99.63;95931.56;5109694;28;20668;-79
2022/11/12 04:10:33;;;;;;;4.38;2.72;;;;;;;6.79;99.50;95936.94;5088912;28;20291;-79
2022/11/12 04:21:49;;;;;;;3.45;2.38;;;;;;;6.72;99.76;95925.63;5097765;28;20220;-79
2022/11/12 04:24:06;;;;;;;5.03;2.90;;;;;;;6.64;100.00;95923.47;5091143;28;20202;-80
2022/11/12 04:26:32;;;;;;;5.03;2.22;;;;;;;6.62;100.00;95914.88;5088975;28;20247;-79
2022/11/12 04:31:54;;;;;;;9.18;2.85;;;;;;;6.48;99.17;95914.59;5034190;28;20405;-79
2022/11/12 04:34:30;;;;;;;3.40;2.75;;;;;;;6.43;99.23;95907.31;5077200;28;20206;-80
2022/11/12 04:36:58;;;;;;;4.13;2.33;;;;;;;6.46;99.57;95910.56;5092701;28;20598;-80
2022/11/12 04:39:25;;;;;;;4.43;2.53;;;;;;;6.55;99.59;95923.22;5092373;28;20283;-79
2022/11/12 04:47:22;;;;;;;4.88;2.42;;;;;;;6.34;100.00;95914.34;5097515;28;20238;-80
2022/11/12 04:49:48;;;;;;;6.10;3.10;;;;;;;6.47;100.00;95912.19;5112826;28;20205;-81
2022/11/12 04:52:17;;;;;;;6.60;3.90;;;;;;;6.43;100.00;95918.09;5112614;28;20233;-79
2022/11/12 04:54:44;;;;;;;10.48;4.88;;;;;;;6.27;99.75;95913.81;5112472;28;20295;-79
2022/11/12 04:57:10;;;;;;;4.55;2.83;;;;;;;6.29;99.50;95927.78;5112002;28;20213;-78
2022/11/12 04:59:37;;;;;;;5.15;2.97;;;;;;;6.32;97.08;95927.25;5112149;28;20297;-80
2022/11/12 05:02:04;;;;;;;5.55;2.53;;;;;;;6.39;96.18;95938.56;5112207;28;20282;-81
2022/11/12 05:04:30;;;;;;;2.10;1.45;;;;;;;6.47;95.07;95939.09;5112304;28;20613;-78
2022/11/12 05:06:58;;;;;;;2.10;1.90;;;;;;;6.53;94.84;95938.03;5112502;28;20201;-79
2022/11/12 05:09:28;;;;;;;4.10;3.17;;;;;;;6.51;94.77;95950.94;5112402;28;20209;-79
2022/11/12 05:11:55;;;;;;;4.30;2.45;;;;;;;6.58;94.86;95946.91;5112467;28;20665;-80
2022/11/12 05:14:23;;;;;;;5.90;2.63;;;;;;;6.70;95.42;95943.94;5112276;27;20610;-80
2022/11/12 05:16:51;;;;;;;7.43;2.55;;;;;;;6.80;95.46;95948.53;5112285;28;20202;-78
2022/11/12 05:19:18;;;;;;;6.30;2.92;;;;;;;6.90;95.38;95952.00;5112368;28;20250;-79
2022/11/12 05:24:31;;;;;;;5.63;3.13;;;;;;;7.12;94.85;95952.50;5100653;28;20583;-80
2022/11/12 05:26:58;;;;;;;4.70;2.03;;;;;;;7.29;94.29;95964.84;5110065;28;20201;-80
2022/11/12 05:29:24;;;;;;;2.88;2.08;;;;;;;7.28;94.42;95955.16;5091074;28;20255;-79
2022/11/12 05:31:51;;;;;;;4.75;2.67;;;;;;;7.29;93.93;95956.75;5090825;28;20234;-78
2022/11/12 05:34:18;;;;;;;5.13;2.97;;;;;;;7.34;93.53;95959.47;5091908;28;20202;-78
2022/11/12 05:36:45;;;;;;;10.43;3.00;;;;;;;7.18;94.12;95952.50;5091311;28;20543;-78
2022/11/12 05:39:11;;;;;;;3.60;2.25;;;;;;;7.22;94.05;95962.47;5091106;28;20232;-80
2022/11/12 05:41:40;;;;;;;4.20;1.98;;;;;;;7.32;94.04;95967.00;5090203;28;20704;-79
2022/11/12 05:44:06;;;;;;;5.30;2.42;;;;;;;7.45;93.83;95961.03;5091787;28;20305;-80
2022/11/12 05:46:33;;;;;;;4.35;2.15;;;;;;;7.65;91.61;95965.56;5091616;28;20210;-79
2022/11/12 05:49:00;;;;;;;6.18;2.92;;;;;;;7.68;90.87;95957.69;5091433;28;20267;-79
2022/11/12 05:51:26;;;;;;;4.43;2.15;;;;;;;7.98;90.99;95969.44;5118978;27;20582;-79
2022/11/12 05:53:53;;;;;;;6.15;2.45;;;;;;;8.35;91.11;95958.16;5091397;28;20625;-79
2022/11/12 05:56:20;;;;;;;5.95;2.88;;;;;;;8.88;89.09;95956.44;5094843;28;20252;-79
2022/11/12 05:58:48;;;;;;;5.47;2.05;;;;;;;9.33;86.67;95963.28;5111524;28;20258;-80
2022/11/12 06:01:15;;;;;;;6.20;4.00;;;;;;;9.92;83.52;95960.16;5110750;28;20852;-79
2022/11/12 06:03:42;;;;;;;8.75;3.30;;;;;;;10.31;80.60;95946.38;5111375;28;20213;-80
2022/11/12 06:06:08;;;;;;;7.70;3.00;;;;;;;10.66;79.19;95952.34;5115812;27;20253;-79
2022/11/12 06:08:35;;;;;;;3.78;2.67;;;;;;;10.91;76.68;95953.84;5110379;27;20199;-80
2022/11/12 06:11:04;;;;;;;5.35;3.55;;;;;;;11.01;75.87;95948.25;5095226;28;20205;-79
2022/11/12 06:13:35;;;;;;;4.95;3.20;;;;;;;10.96;75.51;95956.47;5111977;28;20282;-79
2022/11/12 06:16:09;;;;;;;6.05;3.28;;;;;;;11.23;75.41;95956.53;5111753;28;20220;-78
2022/11/12 06:18:36;;;;;;;3.17;2.13;;;;;;;10.75;73.13;95966.03;5111291;28;20220;-79
2022/11/12 06:21:21;;;;;;;4.68;2.80;;;;;;;11.05;72.69;95960.13;5103650;27;20229;-79
2022/11/12 06:23:50;;;;;;;7.65;2.45;;;;;;;10.74;73.76;95965.25;5117252;27;20233;-79
2022/11/12 06:26:17;;;;;;;5.32;2.78;;;;;;;10.47;72.73;95957.78;5112838;27;20202;-79
2022/11/12 06:28:52;;;;;;;5.13;2.60;;;;;;;10.38;73.99;95958.75;5106698;28;20270;-79
2022/11/12 06:31:20;;;;;;;19.17;3.28;;;;;;;10.20;74.25;95965.78;5109906;28;20240;-79
2022/11/12 06:33:48;;;;;;;3.13;2.33;;;;;;;10.18;72.70;95967.94;5110164;28;20205;-78
2022/11/12 06:36:16;;;;;;;4.63;2.25;;;;;;;9.82;71.65;95964.91;5110974;28;20205;-80
2022/11/12 06:38:44;;;;;;;3.53;2.70;;;;;;;9.46;72.87;95968.00;5115860;27;20664;-78
2022/11/12 06:41:12;;;;;;;5.03;2.03;;;;;;;9.45;72.56;95971.00;5119350;27;20339;-81
2022/11/12 06:43:39;;;;;;;4.18;2.40;;;;;;;9.34;74.33;95975.72;5110968;28;20201;-79
2022/11/12 06:46:08;;;;;;;5.03;2.40;;;;;;;8.88;72.56;95978.06;5110386;28;20209;-82
2022/11/12 06:48:38;;;;;;;3.63;2.10;;;;;;;8.65;74.46;95987.66;5117338;27;20214;-79
2022/11/12 06:51:10;;;;;;;1.83;1.67;;;;;;;8.72;75.06;95990.06;5103647;28;20206;-78
2022/11/12 06:53:37;;;;;;;2.45;1.88;;;;;;;8.73;74.77;95980.88;5110628;27;20198;-80
2022/11/12 06:56:07;;;;;;;3.22;2.10;;;;;;;8.63;75.19;95992.53;5123520;27;20204;-78
2022/11/12 06:58:34;;;;;;;1.90;1.70;;;;;;;8.59;75.24;95986.13;5090070;28;20202;-79
2022/11/12 07:01:10;;;;;;;5.72;2.65;;;;;;;8.54;75.13;95989.66;5090289;28;20747;-79
2022/11/12 07:03:40;;;;;;;2.63;1.88;;;;;;;8.69;76.14;95986.03;5089707;28;20205;-80
2022/11/12 07:06:09;;;;;;;4.53;1.90;;;;;;;8.90;76.26;95992.06;5089930;28;20234;-79
2022/11/12 07:08:36;;;;;;;3.38;2.47;;;;;;;9.17;74.00;95981.53;5090068;28;20271;-78
2022/11/12 07:11:04;;;;;;;4.28;2.35;;;;;;;9.22;74.43;95978.00;5089902;28;20255;-79
2022/11/12 07:13:32;;;;;;;2.10;1.70;;;;;;;9.24;73.21;95982.03;5089673;28;20206;-79
2022/11/12 07:15:59;;;;;;;6.43;2.17;;;;;;;9.12;71.82;95975.41;5091287;28;20296;-76
2022/11/12 07:18:26;;;;;;;2.28;2.03;;;;;;;9.20;71.96;95980.97;5109333;28;20702;-74
2022/11/12 07:20:59;;;;;;;2.22;1.60;;;;;;;9.16;72.67;95981.81;5108964;28;20316;-76
2022/11/12 07:23:26;;;;;;;3.00;1.70;;;;;;;9.12;72.45;95978.91;5097189;28;20772;-79
2022/11/12 07:25:58;;;;;;;3.85;2.08;;;;;;;9.24;73.17;95981.22;5089537;28;20293;-77
2022/11/12 07:28:25;;;;;;;3.03;2.05;;;;;;;9.43;72.63;95973.19;5089142;28;20240;-78
2022/11/12 07:30:55;;;;;;;3.78;2.30;;;;;;;9.47;71.62;95982.34;5089216;28;20263;-77
2022/11/12 07:33:22;;;;;;;2.75;1.83;;;;;;;9.65;70.53;95981.59;5048458;28;20211;-81
2022/11/12 07:35:49;;;;;;;4.10;2.42;;;;;;;9.60;71.62;95973.53;5055416;28;20238;-78
2022/11/12 07:38:17;;;;;;;5.50;3.63;;;;;;;9.75;71.76;95976.06;5069075;28;20210;-78
2022/11/12 07:40:44;;;;;;;3.45;2.20;;;;;;;9.68;69.43;95975.63;5068677;28;20674;-76
2022/11/12 07:43:11;;;;;;;2.78;2.20;;;;;;;9.72;71.07;95976.63;5081747;28;20629;-77
2022/11/12 07:45:38;;;;;;;3.60;1.83;;;;;;;9.92;69.29;95970.97;5055179;28;20614;-77
2022/11/12 07:48:05;;;;;;;2.50;1.75;;;;;;;9.82;68.93;95971.13;5068179;28;20203;-75
2022/11/12 07:50:32;;;;;;;3.58;2.28;;;;;;;9.67;68.42;95979.41;5077999;28;20614;-76
2022/11/12 07:52:59;;;;;;;1.30;1.10;;;;;;;9.63;68.07;95975.66;5075362;28;20238;-74
2022/11/12 07:55:27;;;;;;;2.83;1.73;;;;;;;9.54;68.25;95980.09;5079254;28;20195;-75
2022/11/12 07:57:54;;;;;;;3.75;1.88;;;;;;;9.55;68.15;95982.53;5082962;28;20199;-75
2022/11/12 08:00:21;;;;;;;4.32;1.98;;;;;;;9.62;69.36;95974.06;5079490;28;20267;-78
2022/11/12 08:02:47;;;;;;;6.50;2.92;;;;;;;9.66;69.04;95972.38;5086138;28;20573;-80
2022/11/12 08:05:14;;;;;;;4.40;2.30;;;;;;;9.55;68.57;95985.22;5057870;28;20207;-77
2022/11/12 08:07:43;;;;;;;3.85;2.63;;;;;;;9.40;68.87;95984.59;5069691;28;20206;-77
2022/11/12 08:10:11;;;;;;;3.53;1.73;;;;;;;9.60;69.02;95989.75;5066795;28;20712;-73
2022/11/12 08:12:41;;;;;;;1.75;1.65;;;;;;;9.81;68.68;95993.06;5066257;28;20733;-76
2022/11/12 08:15:08;;;;;;;5.38;2.35;;;;;;;9.67;67.78;95989.44;5080106;28;20549;-76
2022/11/12 08:17:38;;;;;;;2.72;2.10;;;;;;;9.66;68.47;95982.41;5051296;28;20204;-75
2022/11/12 08:20:06;;;;;;;2.58;1.60;;;;;;;9.73;68.46;95994.47;5060510;28;20210;-74
2022/11/12 08:22:32;;;;;;;2.22;1.50;;;;;;;9.66;68.64;95995.94;5081976;28;20203;-76
2022/11/12 08:24:59;;;;;;;3.05;1.90;;;;;;;9.57;69.02;96001.16;5068413;28;20207;-75
2022/11/12 08:27:26;;;;;;;2.42;1.38;;;;;;;9.64;69.43;95996.22;5075311;28;20207;-74
2022/11/12 08:29:54;;;;;;;2.30;1.38;;;;;;;9.68;68.71;95996.47;5060458;28;20283;-73
2022/11/12 08:32:21;;;;;;;1.70;0.85;;;;;;;9.68;68.85;95997.25;5090688;28;20479;-77
2022/11/12 08:34:48;;;;;;;2.13;1.30;;;;;;;9.49;68.79;96009.91;5108552;28;20626;-74
2022/11/12 08:37:14;;;;;;;1.17;1.08;;;;;;;9.36;68.79;96005.97;5107746;28;20221;-73
2022/11/12 08:39:41;;;;;;;1.65;1.25;;;;;;;9.48;69.01;96000.97;5108563;28;20557;-73
2022/11/12 08:42:08;;;;;;;3.63;1.48;;;;;;;9.77;70.00;96000.13;5114975;28;20303;-73
2022/11/12 08:44:35;;;;;;;1.33;1.00;;;;;;;9.80;68.26;95999.56;5087836;28;20203;-75
2022/11/12 08:47:03;;;;;;;1.35;1.25;;;;;;;9.72;67.94;96008.28;5088294;28;20491;-72
2022/11/12 08:49:30;;;;;;;2.88;2.05;;;;;;;10.03;67.84;95997.91;5088222;28;20662;-74
2022/11/12 08:51:57;;;;;;;4.15;2.38;;;;;;;10.19;67.37;95996.66;5101881;28;20230;-74
2022/11/12 08:54:24;;;;;;;4.88;2.80;;;;;;;10.53;66.07;95996.44;5116860;28;20329;-76
2022/11/12 08:56:55;;;;;;;5.78;2.72;;;;;;;10.58;65.79;95994.47;5116852;28;20323;-76
2022/11/12 08:59:22;;;;;;;5.63;2.40;;;;;;;10.69;65.63;95989.69;5115745;27;20196;-75
2022/11/12 09:01:49;;;;;;;2.67;1.73;;;;;;;10.52;65.25;95989.44;5112319;27;20759;-77
2022/11/12 09:04:17;;;;;;;2.47;1.70;;;;;;;10.46;65.36;95991.41;5090235;28;20696;-75
2022/11/12 09:06:44;;;;;;;7.15;1.85;;;;;;;10.24;66.53;95992.00;5117216;28;20274;-76
2022/11/12 09:09:11;;;;;;;2.33;1.05;;;;;;;10.62;66.45;95979.25;5096726;27;20557;-75
2022/11/12 09:11:40;;;;;;;2.67;0.93;;;;;;;10.49;65.34;95985.41;5097293;28;20225;-74
2022/11/12 09:14:07;;;;;;;4.07;1.75;;;;;;;10.40;65.47;95989.03;5107291;28;20445;-74
2022/11/12 09:16:34;;;;;;;2.75;1.48;;;;;;;10.20;65.87;95982.03;5107182;28;20254;-76
2022/11/12 09:19:00;;;;;;;1.08;0.80;;;;;;;10.45;65.84;95989.78;5095193;27;20202;-76
2022/11/12 09:21:31;;;;;;;1.90;1.13;;;;;;;10.64;65.13;95987.09;5101382;28;20217;-76
2022/11/12 09:23:58;;;;;;;5.57;2.33;;;;;;;10.63;64.95;95986.28;5109686;28;20520;-77
2022/11/12 09:26:25;;;;;;;4.97;2.35;;;;;;;10.15;65.22;95990.19;5111296;28;20194;-76
2022/11/12 09:28:53;;;;;;;0.85;0.85;;;;;;;10.13;66.39;95997.78;5111403;27;20202;-76
2022/11/12 09:31:20;;;;;;;2.70;1.73;;;;;;;10.06;66.96;95991.94;5111643;28;20273;-77
2022/11/12 09:33:47;;;;;;;10.05;2.75;;;;;;;10.16;67.29;95997.22;5111743;27;20198;-76
2022/11/12 09:36:16;;;;;;;2.58;1.35;;;;;;;10.25;66.57;95990.09;5112338;28;20213;-76
2022/11/12 09:38:44;;;;;;;0.82;0.77;;;;;;;10.24;66.58;95989.28;5110349;28;20198;-75
2022/11/12 09:41:26;;;;;;;3.00;1.55;;;;;;;10.17;67.20;95988.00;5124072;27;20269;-77
2022/11/12 09:43:54;;;;;;;2.50;1.95;;;;;;;9.94;67.23;95987.75;5102728;28;20766;-76
2022/11/12 09:46:29;;;;;;;2.30;1.02;;;;;;;9.86;68.41;95993.78;5108436;28;20194;-77
2022/11/12 09:49:02;;;;;;;3.22;1.10;;;;;;;9.70;67.71;96000.50;5107588;28;20205;-75
2022/11/12 09:51:33;;;;;;;7.78;1.13;;;;;;;9.58;68.48;95991.94;5108029;28;20218;-77
2022/11/12 09:54:06;;;;;;;1.67;0.93;;;;;;;9.62;68.53;95998.41;5110604;28;20219;-77
2022/11/12 09:56:33;;;;;;;1.50;1.02;;;;;;;9.64;67.21;95996.22;5109179;28;20545;-76
2022/11/12 09:59:00;;;;;;;1.17;0.80;;;;;;;9.64;67.18;96001.63;5108346;28;20664;-75
2022/11/12 10:01:40;;;;;;;1.85;1.75;;;;;;;9.56;68.25;95994.97;5117304;27;20239;-80
2022/11/12 10:04:36;;;;;;;2.28;1.50;;;;;;;9.65;67.11;95997.84;5118122;27;20773;-78
2022/11/12 10:07:09;;;;;;;5.15;1.15;;;;;;;9.70;67.46;95989.66;5120642;27;20270;-80
2022/11/12 10:09:48;;;;;;;2.08;1.30;;;;;;;9.73;66.99;95994.47;5110550;28;20236;-80
2022/11/12 10:12:34;;;;;;;2.83;1.00;;;;;;;9.62;67.03;96003.81;5110654;28;20233;-81
2022/11/12 10:18:13;;;;;;;1.27;1.10;;;;;;;9.55;66.38;95997.94;5111266;28;20555;-78
2022/11/12 10:20:46;;;;;;;1.90;1.48;;;;;;;9.59;67.10;95993.56;5110521;28;20209;-79
2022/11/12 10:23:19;;;;;;;0.75;0.75;;;;;;;9.66;66.52;95994.03;5111252;28;20189;-76
2022/11/12 10:25:49;;;;;;;1.98;1.35;;;;;;;9.55;67.17;96004.16;5111142;28;20206;-77
2022/11/12 10:28:27;;;;;;;1.10;0.98;;;;;;;9.61;67.25;95997.59;5109286;28;20197;-79
2022/11/12 10:30:58;;;;;;;2.17;1.33;;;;;;;9.51;67.86;95989.59;5110273;28;20193;-78
2022/11/12 10:33:30;;;;;;;2.17;1.63;;;;;;;9.68;67.31;95991.84;5110812;27;20262;-81
2022/11/12 10:36:12;;;;;;;1.38;1.27;;;;;;;9.86;67.24;95988.38;5120545;27;20200;-82
2022/11/12 10:38:43;;;;;;;1.17;1.00;;;;;;;9.80;66.96;95991.44;5113242;27;20208;-77
2022/11/12 10:41:22;;;;;;;2.30;1.40;;;;;;;9.81;67.22;95993.88;5109776;28;20544;-79
2022/11/12 10:43:58;;;;;;;1.45;0.90;;;;;;;9.63;67.63;95990.00;5110182;28;20680;-78
2022/11/12 10:46:28;;;;;;;0.82;0.82;;;;;;;9.51;68.50;95991.50;5110768;28;20212;-78
2022/11/12 10:48:59;;;;;;;0.70;0.63;;;;;;;9.49;70.46;95988.25;5110328;28;20500;-75
2022/11/12 10:51:29;;;;;;;1.75;1.17;;;;;;;9.49;69.89;95988.25;5109799;28;20316;-78
2022/11/12 10:53:57;;;;;;;2.85;1.42;;;;;;;9.26;70.95;95989.88;5110306;28;20197;-78
2022/11/12 10:56:28;;;;;;;2.38;1.70;;;;;;;9.29;73.22;95988.50;5109851;28;20201;-78
2022/11/12 10:59:16;;;;;;;1.95;1.10;;;;;;;9.47;73.08;95987.75;5121924;27;20205;-78
2022/11/12 11:01:44;;;;;;;5.93;1.90;;;;;;;9.63;72.58;95983.78;5102063;28;20844;-79
2022/11/12 11:04:28;;;;;;;3.42;1.58;;;;;;;9.62;71.52;95998.41;5107639;27;20202;-78
2022/11/12 11:07:04;;;;;;;1.48;1.38;;;;;;;9.69;71.97;95988.06;5100753;28;20230;-78
2022/11/12 11:09:31;;;;;;;2.10;1.05;;;;;;;9.92;71.37;95998.06;5096009;28;20852;-78
2022/11/12 11:12:00;;;;;;;2.20;1.27;;;;;;;9.94;70.61;95978.81;5108944;28;20206;-78
2022/11/12 11:14:30;;;;;;;3.05;1.52;;;;;;;9.86;70.50;95977.53;5109840;28;20206;-77
2022/11/12 11:17:00;;;;;;;1.33;1.23;;;;;;;9.82;70.31;95981.94;5109908;28;20213;-79
2022/11/12 11:19:35;;;;;;;2.42;1.55;;;;;;;9.89;70.87;95976.97;5102244;28;20203;-77
2022/11/12 11:22:36;;;;;;;2.35;1.80;;;;;;;10.07;70.09;95982.72;5090601;28;20225;-77
2022/11/12 11:25:19;;;;;;;1.75;0.95;;;;;;;10.03;69.52;95981.69;5106079;28;20260;-78
2022/11/12 11:28:01;;;;;;;1.15;1.05;;;;;;;9.82;69.97;95990.06;5109606;28;20197;-79
2022/11/12 11:30:28;;;;;;;0.55;0.52;;;;;;;9.87;69.96;95984.56;5109551;28;20266;-78
2022/11/12 11:33:19;;;;;;;2.60;1.08;;;;;;;10.02;69.66;95980.06;5109565;28;20244;-79
2022/11/12 11:35:55;;;;;;;2.80;1.10;;;;;;;10.23;68.89;95981.44;5110000;28;20198;-78
2022/11/12 11:38:35;;;;;;;1.63;1.10;;;;;;;10.31;68.22;95983.50;5108341;28;20209;-77
2022/11/12 11:41:29;;;;;;;2.40;1.25;;;;;;;10.25;68.19;95982.75;5097914;28;20229;-78
2022/11/12 11:44:06;;;;;;;3.83;1.15;;;;;;;10.18;68.46;95978.78;5096689;28;20296;-78
2022/11/12 11:46:48;;;;;;;1.27;1.15;;;;;;;10.10;69.14;95976.72;5109614;28;20197;-80
2022/11/12 11:49:42;;;;;;;2.40;1.10;;;;;;;10.09;69.00;95975.09;5108301;27;20205;-79
2022/11/12 11:52:31;;;;;;;1.40;1.15;;;;;;;10.02;68.82;95969.22;5109081;28;20683;-76
2022/11/12 11:55:17;;;;;;;1.48;0.93;;;;;;;9.99;69.02;95976.84;5109443;28;20198;-78
2022/11/12 11:57:55;;;;;;;2.25;1.52;;;;;;;10.07;69.08;95977.31;5094658;28;20275;-78
2022/11/12 12:00:28;;;;;;;1.58;1.45;;;;;;;10.27;68.92;95977.03;5088887;28;20198;-77
2022/11/12 12:03:13;;;;;;;1.40;1.00;;;;;;;10.32;68.79;95979.69;5088078;28;20541;-79
2022/11/12 12:05:44;;;;;;;1.58;1.17;;;;;;;10.34;69.58;95977.50;5088814;28;20248;-79
2022/11/12 12:08:16;;;;;;;1.17;1.00;;;;;;;10.50;68.92;95978.91;5088748;28;20603;-79
2022/11/12 12:10:52;;;;;;;2.42;1.58;;;;;;;10.53;69.24;95970.16;5088722;28;20202;-78
2022/11/12 12:13:28;;;;;;;5.15;1.92;;;;;;;10.55;68.94;95962.53;5088315;28;20258;-78
2022/11/12 12:16:29;;;;;;;3.97;2.15;;;;;;;10.64;67.97;95954.56;5089219;28;20263;-78
2022/11/12 12:19:05;;;;;;;2.25;1.30;;;;;;;10.63;67.38;95952.97;5090821;28;20714;-80